createdAt,value
2018-11-06T00:02:23.644Z,26.10
2018-11-06T00:04:57.024Z,32.95
2018-11-06T00:07:25.099Z,31.80
2018-11-06T00:09:53.173Z,29.35
2018-11-06T00:12:21.251Z,33.10
2018-11-06T00:14:49.341Z,33.60
2018-11-06T00:17:17.454Z,31.42
2018-11-06T00:19:45.531Z,37.03
2018-11-06T00:22:13.602Z,35.78
2018-11-06T00:24:41.647Z,28.60
2018-11-06T00:27:09.739Z,34.05
2018-11-06T00:29:37.792Z,30.55
2018-11-06T00:32:05.891Z,30.52
2018-11-06T00:34:33.951Z,29.48
2018-11-06T00:37:02.025Z,34.18
2018-11-06T00:39:30.084Z,36.10
2018-11-06T00:41:58.162Z,28.77
2018-11-06T00:44:26.203Z,32.00
2018-11-06T00:46:54.271Z,30.92
2018-11-06T00:49:22.336Z,37.73
2018-11-06T00:51:50.420Z,31.05
2018-11-06T00:54:18.478Z,30.80
2018-11-06T00:56:46.577Z,26.37
2018-11-06T00:59:14.632Z,27.35
2018-11-06T01:01:42.727Z,26.52
2018-11-06T01:04:13.131Z,26.48
2018-11-06T01:06:41.248Z,31.62
2018-11-06T01:09:11.948Z,35.50
2018-11-06T01:11:40.741Z,33.50
2018-11-06T01:14:09.004Z,37.10
2018-11-06T01:16:37.083Z,41.88
2018-11-06T01:19:05.453Z,37.35
2018-11-06T01:21:33.592Z,29.82
2018-11-06T01:24:01.668Z,32.60
2018-11-06T01:26:29.735Z,36.20
2018-11-06T01:28:57.815Z,33.38
2018-11-06T01:31:26.120Z,34.95
2018-11-06T01:33:54.191Z,29.05
2018-11-06T01:36:22.280Z,39.48
2018-11-06T01:38:50.357Z,28.40
2018-11-06T01:41:18.511Z,33.92
2018-11-06T01:43:46.664Z,36.00
2018-11-06T01:46:14.740Z,27.02
2018-11-06T01:48:42.840Z,34.53
2018-11-06T01:51:10.900Z,36.63
2018-11-06T01:53:38.996Z,34.75
2018-11-06T01:56:07.093Z,32.85
2018-11-06T01:58:35.404Z,45.95
2018-11-06T02:01:03.589Z,31.33
2018-11-06T02:03:31.665Z,37.58
2018-11-06T02:05:59.740Z,37.50
2018-11-06T02:08:27.816Z,32.98
2018-11-06T02:10:55.876Z,31.37
2018-11-06T02:13:23.964Z,36.60
2018-11-06T02:15:52.058Z,42.30
2018-11-06T02:18:20.133Z,36.60
2018-11-06T02:20:48.205Z,32.42
2018-11-06T02:23:16.271Z,35.95
2018-11-06T02:25:44.337Z,32.75
2018-11-06T02:28:12.403Z,23.52
2018-11-06T02:30:40.481Z,28.52
2018-11-06T02:33:08.559Z,26.77
2018-11-06T02:35:36.619Z,31.65
2018-11-06T02:38:04.772Z,34.03
2018-11-06T02:40:32.829Z,26.12
2018-11-06T02:43:00.909Z,32.53
2018-11-06T02:45:28.980Z,18.07
2018-11-06T02:47:57.059Z,28.55
2018-11-06T02:50:25.149Z,27.17
2018-11-06T02:52:53.242Z,31.95
2018-11-06T02:55:21.307Z,31.90
2018-11-06T02:57:49.400Z,30.57
2018-11-06T03:00:18.064Z,29.45
2018-11-06T03:02:47.167Z,26.42
2018-11-06T03:05:16.210Z,29.85
2018-11-06T03:07:44.319Z,22.45
2018-11-06T03:10:13.264Z,26.45
2018-11-06T03:12:42.419Z,25.25
2018-11-06T03:15:11.716Z,29.00
2018-11-06T03:17:39.783Z,22.55
2018-11-06T03:20:08.944Z,31.70
2018-11-06T03:22:37.029Z,28.62
2018-11-06T03:25:05.319Z,25.85
2018-11-06T03:27:33.428Z,21.07
2018-11-06T03:30:01.558Z,24.82
2018-11-06T03:32:29.655Z,26.62
2018-11-06T03:34:57.841Z,22.50
2018-11-06T03:37:25.916Z,25.97
2018-11-06T03:39:53.979Z,34.80
2018-11-06T03:42:22.051Z,21.05
2018-11-06T03:44:50.128Z,19.75
2018-11-06T03:47:18.192Z,26.57
2018-11-06T03:49:46.276Z,28.52
2018-11-06T03:52:14.347Z,24.57
2018-11-06T03:54:42.426Z,22.15
2018-11-06T03:57:10.507Z,22.20
2018-11-06T03:59:38.585Z,25.17
2018-11-06T04:02:06.672Z,31.02
2018-11-06T04:04:34.760Z,28.45
2018-11-06T04:07:02.840Z,17.37
2018-11-06T04:09:30.926Z,18.85
2018-11-06T04:11:59.009Z,22.48
2018-11-06T04:14:27.096Z,23.27
2018-11-06T04:16:55.172Z,27.17
2018-11-06T04:19:23.248Z,20.77
2018-11-06T04:21:51.324Z,21.33
2018-11-06T04:24:19.401Z,25.27
2018-11-06T04:26:47.476Z,29.10
2018-11-06T04:29:15.546Z,31.48
2018-11-06T04:31:43.615Z,29.77
2018-11-06T04:34:11.682Z,27.22
2018-11-06T04:36:39.751Z,22.75
2018-11-06T04:39:09.265Z,28.47
2018-11-06T04:41:37.325Z,23.70
2018-11-06T04:44:06.214Z,23.20
2018-11-06T04:46:34.292Z,24.55
2018-11-06T04:49:02.368Z,21.57
2018-11-06T04:51:30.432Z,23.12
2018-11-06T04:53:59.327Z,23.87
2018-11-06T04:56:28.218Z,21.75
2018-11-06T04:58:56.317Z,26.57
2018-11-06T05:01:24.757Z,25.45
2018-11-06T05:03:52.827Z,17.23
2018-11-06T05:06:20.897Z,19.50
2018-11-06T05:08:49.001Z,18.48
2018-11-06T05:11:17.081Z,19.98
2018-11-06T05:13:45.168Z,17.00
2018-11-06T05:16:13.238Z,23.32
2018-11-06T05:18:41.321Z,24.50
2018-11-06T05:21:09.395Z,20.20
2018-11-06T05:23:37.472Z,17.67
2018-11-06T05:26:05.566Z,20.35
2018-11-06T05:28:33.735Z,18.40
2018-11-06T05:31:01.820Z,18.17
2018-11-06T05:33:29.873Z,18.35
2018-11-06T05:35:57.954Z,20.68
2018-11-06T05:38:26.012Z,16.32
2018-11-06T05:41:13.482Z,21.15
2018-11-06T05:43:41.564Z,19.15
2018-11-06T05:46:10.089Z,22.58
2018-11-06T05:48:38.985Z,18.27
2018-11-06T05:51:07.056Z,17.00
2018-11-06T05:53:35.127Z,20.90
2018-11-06T05:56:03.204Z,19.10
2018-11-06T05:58:31.266Z,17.12
2018-11-06T06:00:59.339Z,19.52
2018-11-06T06:03:27.424Z,17.90
2018-11-06T06:05:55.489Z,16.07
2018-11-06T06:08:23.547Z,22.65
2018-11-06T06:10:51.642Z,20.57
2018-11-06T06:13:19.705Z,19.65
2018-11-06T06:15:47.773Z,18.55
2018-11-06T06:18:15.849Z,16.62
2018-11-06T06:20:43.966Z,16.90
2018-11-06T06:23:12.347Z,12.15
2018-11-06T06:25:40.427Z,13.28
2018-11-06T06:28:08.520Z,18.35
2018-11-06T06:30:36.654Z,19.98
2018-11-06T06:33:04.855Z,15.93
2018-11-06T06:35:33.259Z,19.90
2018-11-06T06:38:01.398Z,15.00
2018-11-06T06:40:29.540Z,25.57
2018-11-06T06:42:57.643Z,17.98
2018-11-06T06:45:25.816Z,18.60
2018-11-06T06:50:28.487Z,21.02
2018-11-06T06:52:56.638Z,23.92
2018-11-06T06:55:24.797Z,26.77
2018-11-06T06:57:52.928Z,25.50
2018-11-06T07:00:22.143Z,23.40
2018-11-06T07:02:50.367Z,23.05
2018-11-06T07:05:19.836Z,33.65
2018-11-06T07:07:48.010Z,20.60
2018-11-06T07:10:17.677Z,24.52
2018-11-06T07:12:46.727Z,24.05
2018-11-06T07:15:16.013Z,24.18
2018-11-06T07:17:45.016Z,25.55
2018-11-06T07:20:14.441Z,30.70
2018-11-06T07:22:42.572Z,25.02
2018-11-06T07:25:11.541Z,24.00
2018-11-06T07:27:40.412Z,30.60
2018-11-06T07:30:10.444Z,19.37
2018-11-06T07:32:38.949Z,25.70
2018-11-06T07:35:08.635Z,24.82
2018-11-06T07:37:37.029Z,21.15
2018-11-06T07:40:05.912Z,20.97
2018-11-06T07:42:34.016Z,24.00
2018-11-06T07:45:02.110Z,38.38
2018-11-06T07:47:30.548Z,26.20
2018-11-06T07:49:58.751Z,26.97
2018-11-06T07:52:26.851Z,27.30
2018-11-06T07:54:54.981Z,26.85
2018-11-06T07:57:23.073Z,27.00
2018-11-06T07:59:51.169Z,22.48
2018-11-06T08:02:19.583Z,18.35
2018-11-06T08:04:47.715Z,19.25
2018-11-06T08:07:15.820Z,14.28
2018-11-06T08:09:43.881Z,22.07
2018-11-06T08:12:11.934Z,23.90
2018-11-06T08:14:40.048Z,26.60
2018-11-06T08:17:08.372Z,19.92
2018-11-06T08:19:36.433Z,23.50
2018-11-06T08:22:04.520Z,21.17
2018-11-06T08:24:32.590Z,17.27
2018-11-06T08:27:00.663Z,23.92
2018-11-06T08:29:34.472Z,23.05
2018-11-06T08:32:06.798Z,19.65
2018-11-06T08:34:34.811Z,22.48
2018-11-06T08:37:02.912Z,18.82
2018-11-06T08:39:30.970Z,20.08
2018-11-06T08:41:59.056Z,21.75
2018-11-06T08:44:27.105Z,21.97
2018-11-06T08:46:55.195Z,23.50
2018-11-06T08:49:23.283Z,21.23
2018-11-06T08:51:51.378Z,21.90
2018-11-06T08:54:19.455Z,20.57
2018-11-06T08:56:47.532Z,25.15
2018-11-06T08:59:15.648Z,27.95
2018-11-06T09:01:43.776Z,18.75
2018-11-06T09:04:11.852Z,20.17
2018-11-06T09:06:39.996Z,19.77
2018-11-06T09:09:08.795Z,24.85
2018-11-06T09:11:36.905Z,22.87
2018-11-06T09:14:05.010Z,24.35
2018-11-06T09:16:33.025Z,23.55
2018-11-06T09:19:01.097Z,25.90
2018-11-06T09:21:29.152Z,29.72
2018-11-06T09:23:57.228Z,22.50
2018-11-06T09:26:25.292Z,25.85
2018-11-06T09:28:53.475Z,24.67
2018-11-06T09:31:21.553Z,26.82
2018-11-06T09:33:49.649Z,24.92
2018-11-06T09:36:17.751Z,21.40
2018-11-06T09:38:45.820Z,32.88
2018-11-06T09:41:14.278Z,34.88
2018-11-06T09:43:42.364Z,35.35
2018-11-06T09:46:10.437Z,28.45
2018-11-06T09:48:38.894Z,32.48
2018-11-06T09:51:07.872Z,34.63
2018-11-06T09:59:03.522Z,23.42
2018-11-06T10:01:31.853Z,28.87
2018-11-06T10:03:59.936Z,33.45
2018-11-06T10:06:28.188Z,38.60
2018-11-06T10:08:56.200Z,44.65
2018-11-06T10:11:24.299Z,33.98
2018-11-06T10:13:52.368Z,35.85
2018-11-06T10:16:20.464Z,35.17
2018-11-06T10:18:48.656Z,33.38
2018-11-06T10:21:16.748Z,31.12
2018-11-06T10:23:44.863Z,29.42
2018-11-06T10:26:12.933Z,33.88
2018-11-06T10:28:41.017Z,26.40
2018-11-06T10:31:09.080Z,32.95
2018-11-06T10:33:37.200Z,26.05
2018-11-06T10:36:05.442Z,33.20
2018-11-06T10:38:33.516Z,34.65
2018-11-06T10:41:01.601Z,22.48
2018-11-06T10:43:29.697Z,26.40
2018-11-06T10:45:57.752Z,30.65
2018-11-06T10:48:26.104Z,28.80
2018-11-06T10:50:54.178Z,37.23
2018-11-06T10:53:22.238Z,33.30
2018-11-06T10:55:50.308Z,33.40
2018-11-06T10:58:18.406Z,32.13
2018-11-06T11:00:51.817Z,32.48
2018-11-06T11:03:25.149Z,33.95
2018-11-06T11:05:53.232Z,23.18
2018-11-06T11:08:21.284Z,28.30
2018-11-06T11:10:49.380Z,25.02
2018-11-06T11:13:17.548Z,30.60
2018-11-06T11:15:45.540Z,24.67
2018-11-06T11:18:13.611Z,26.55
2018-11-06T11:20:41.704Z,28.60
2018-11-06T11:23:09.777Z,25.37
2018-11-06T11:25:37.894Z,26.75
2018-11-06T11:28:05.954Z,29.60
2018-11-06T11:30:34.048Z,27.65
2018-11-06T11:33:02.114Z,24.63
2018-11-06T11:35:30.220Z,27.45
2018-11-06T11:37:58.309Z,21.93
2018-11-06T11:40:26.385Z,30.27
2018-11-06T11:42:54.446Z,23.57
2018-11-06T11:45:22.512Z,23.05
2018-11-06T11:47:50.592Z,26.27
2018-11-06T11:50:18.655Z,26.80
2018-11-06T11:52:46.729Z,27.73
2018-11-06T11:55:14.833Z,30.35
2018-11-06T11:57:43.779Z,22.02
2018-11-06T12:00:14.245Z,29.75
2018-11-06T12:02:42.338Z,30.37
2018-11-06T12:05:11.224Z,26.33
2018-11-06T12:07:39.289Z,25.20
2018-11-06T12:10:08.889Z,28.80
2018-11-06T12:12:36.944Z,26.33
2018-11-06T12:15:07.000Z,26.87
2018-11-06T12:17:35.080Z,32.15
2018-11-06T12:20:03.133Z,31.17
2018-11-06T12:22:31.196Z,24.63
2018-11-06T12:24:59.445Z,25.57
2018-11-06T12:27:27.348Z,23.27
2018-11-06T12:29:55.401Z,22.02
2018-11-06T12:32:23.470Z,37.45
2018-11-06T12:34:51.516Z,27.65
2018-11-06T12:37:19.584Z,27.25
2018-11-06T12:39:47.697Z,27.35
2018-11-06T12:42:15.756Z,25.15
2018-11-06T12:44:44.092Z,24.25
2018-11-06T12:47:12.212Z,28.17
2018-11-06T12:49:40.261Z,28.83
2018-11-06T12:52:08.314Z,35.28
2018-11-06T12:54:36.424Z,24.45
2018-11-06T12:57:04.485Z,25.27
2018-11-06T12:59:32.524Z,38.53
2018-11-06T13:02:00.596Z,28.35
2018-11-06T13:04:28.660Z,24.23
2018-11-06T13:06:56.797Z,26.50
2018-11-06T13:09:24.894Z,29.90
2018-11-06T13:11:52.983Z,27.40
2018-11-06T13:14:21.076Z,26.85
2018-11-06T13:16:49.170Z,29.00
2018-11-06T13:19:17.242Z,22.10
2018-11-06T13:21:45.348Z,21.70
2018-11-06T13:24:13.444Z,22.48
2018-11-06T13:26:41.642Z,27.90
2018-11-06T13:29:09.677Z,30.92
2018-11-06T13:31:37.744Z,25.75
2018-11-06T13:34:05.829Z,28.27
2018-11-06T13:36:33.891Z,24.60
2018-11-06T13:39:01.980Z,30.00
2018-11-06T13:41:30.063Z,22.75
2018-11-06T13:43:58.290Z,24.80
2018-11-06T13:46:26.221Z,25.68
2018-11-06T13:48:54.312Z,22.93
2018-11-06T13:51:22.369Z,26.25
2018-11-06T13:53:50.464Z,24.20
2018-11-06T13:56:18.584Z,28.40
2018-11-06T13:58:46.660Z,18.20
2018-11-06T14:01:14.767Z,20.37
2018-11-06T14:03:42.868Z,23.83
2018-11-06T14:06:10.937Z,25.77
2018-11-06T14:08:39.026Z,21.85
2018-11-06T14:11:07.080Z,26.20
2018-11-06T14:13:35.164Z,26.62
2018-11-06T14:16:03.228Z,24.72
2018-11-06T14:18:31.341Z,21.00
2018-11-06T14:20:59.397Z,21.25
2018-11-06T14:23:27.477Z,21.02
2018-11-06T14:25:55.524Z,20.85
2018-11-06T14:28:23.584Z,20.82
2018-11-06T14:30:51.655Z,21.48
2018-11-06T14:33:19.725Z,21.97
2018-11-06T14:35:47.845Z,25.15
2018-11-06T14:38:15.897Z,22.17
2018-11-06T14:40:43.980Z,17.82
2018-11-06T14:43:12.048Z,25.37
2018-11-06T14:45:40.132Z,21.55
2018-11-06T14:48:08.229Z,23.47
2018-11-06T14:50:36.280Z,20.12
2018-11-06T14:53:04.392Z,22.87
2018-11-06T14:55:32.464Z,21.62
2018-11-06T14:58:00.522Z,21.17
2018-11-06T15:00:28.617Z,21.42
2018-11-06T15:02:56.671Z,16.50
2018-11-06T15:05:24.784Z,19.25
2018-11-06T15:07:52.803Z,20.77
2018-11-06T15:10:20.875Z,20.43
2018-11-06T15:12:49.013Z,18.40
2018-11-06T15:15:17.637Z,24.43
2018-11-06T15:17:46.596Z,27.40
2018-11-06T15:20:17.060Z,23.87
2018-11-06T15:22:45.523Z,24.98
2018-11-06T15:25:14.356Z,22.58
2018-11-06T15:27:42.408Z,23.10
2018-11-06T15:30:12.505Z,19.10
2018-11-06T15:32:41.187Z,24.12
2018-11-06T15:35:10.439Z,20.60
2018-11-06T15:37:38.761Z,23.87
2018-11-06T15:40:09.912Z,22.15
2018-11-06T15:42:38.050Z,21.97
2018-11-06T15:45:06.964Z,20.95
2018-11-06T15:47:35.049Z,18.30
2018-11-06T15:50:03.305Z,16.93
2018-11-06T15:52:31.389Z,19.65
2018-11-06T15:54:59.821Z,24.87
2018-11-06T15:57:27.892Z,23.90
2018-11-06T15:59:55.964Z,26.05
2018-11-06T16:02:24.081Z,19.40
2018-11-06T16:04:52.149Z,22.30
2018-11-06T16:07:20.232Z,21.25
2018-11-06T16:09:48.325Z,24.72
2018-11-06T16:12:16.472Z,27.87
2018-11-06T16:14:44.682Z,22.62
2018-11-06T16:17:12.812Z,17.50
2018-11-06T16:19:40.893Z,22.67
2018-11-06T16:22:09.081Z,23.15
2018-11-06T16:24:37.248Z,21.35
2018-11-06T16:27:05.828Z,18.70
2018-11-06T16:29:33.934Z,23.57
2018-11-06T16:32:02.092Z,26.97
2018-11-06T16:34:30.221Z,25.32
2018-11-06T16:36:58.296Z,19.05
2018-11-06T16:39:26.421Z,24.07
2018-11-06T16:41:54.565Z,23.32
2018-11-06T16:44:22.645Z,24.50
2018-11-06T16:46:50.796Z,19.45
2018-11-06T16:49:18.867Z,19.00
2018-11-06T16:51:46.945Z,20.43
2018-11-06T16:54:15.008Z,25.72
2018-11-06T16:56:43.108Z,29.02
2018-11-06T16:59:11.189Z,25.77
2018-11-06T17:01:39.267Z,31.77
2018-11-06T17:04:07.336Z,24.82
2018-11-06T17:06:39.684Z,24.87
2018-11-06T17:09:08.713Z,26.90
2018-11-06T17:11:37.136Z,24.98
2018-11-06T17:14:05.256Z,33.30
2018-11-06T17:16:33.440Z,27.58
2018-11-06T17:19:01.520Z,23.20
2018-11-06T17:21:29.596Z,27.55
2018-11-06T17:23:57.705Z,27.75
2018-11-06T17:26:25.785Z,24.87
2018-11-06T17:28:53.852Z,26.82
2018-11-06T17:31:21.965Z,29.87
2018-11-06T17:33:50.064Z,20.50
2018-11-06T17:36:18.169Z,27.27
2018-11-06T17:38:46.259Z,27.40
2018-11-06T17:41:14.366Z,27.32
2018-11-06T17:43:42.452Z,25.60
2018-11-06T17:46:10.536Z,28.23
2018-11-06T17:48:38.724Z,24.92
2018-11-06T17:51:06.788Z,20.90
2018-11-06T17:53:34.884Z,18.67
2018-11-06T17:56:03.008Z,23.02
2018-11-06T17:58:31.092Z,22.70
2018-11-06T18:00:59.169Z,24.45
2018-11-06T18:03:27.253Z,23.60
2018-11-06T18:05:55.323Z,25.92
2018-11-06T18:08:23.408Z,22.20
2018-11-06T18:10:51.492Z,25.00
2018-11-06T18:13:19.578Z,28.70
2018-11-06T18:15:47.640Z,22.20
2018-11-06T18:18:15.735Z,25.02
2018-11-06T18:20:43.814Z,22.98
2018-11-06T18:23:11.940Z,20.27
2018-11-06T18:25:40.098Z,22.32
2018-11-06T18:28:08.096Z,26.90
2018-11-06T18:30:36.177Z,31.27
2018-11-06T18:33:04.290Z,23.67
2018-11-06T18:35:32.383Z,30.70
2018-11-06T18:38:00.448Z,25.45
2018-11-06T18:40:28.508Z,26.42
2018-11-06T18:42:56.595Z,32.28
2018-11-06T18:45:24.676Z,35.85
2018-11-06T18:47:52.804Z,37.55
2018-11-06T18:50:20.896Z,39.85
2018-11-06T18:52:50.117Z,29.25
2018-11-06T18:55:18.332Z,29.23
2018-11-06T18:57:46.435Z,30.17
2018-11-06T19:00:15.888Z,31.80
2018-11-06T19:02:45.272Z,31.73
2018-11-06T19:05:13.549Z,29.50
2018-11-06T19:07:41.624Z,31.05
2018-11-06T19:10:10.950Z,24.63
2018-11-06T19:12:39.079Z,27.42
2018-11-06T19:15:09.832Z,34.85
2018-11-06T19:17:37.904Z,31.45
2018-11-06T19:20:06.602Z,30.55
2018-11-06T19:22:35.052Z,35.10
2018-11-06T19:25:03.131Z,26.75
2018-11-06T19:27:31.260Z,30.15
2018-11-06T19:29:59.345Z,29.67
2018-11-06T19:32:27.428Z,35.95
2018-11-06T19:34:55.601Z,29.75
2018-11-06T19:37:23.794Z,27.48
2018-11-06T19:39:53.719Z,28.98
2018-11-06T19:42:22.540Z,28.98
2018-11-06T19:44:50.616Z,28.42
2018-11-06T19:47:18.803Z,24.87
2018-11-06T19:49:46.801Z,25.68
2018-11-06T19:52:14.900Z,22.10
2018-11-06T19:54:42.967Z,27.10
2018-11-06T19:57:11.103Z,26.30
2018-11-06T19:59:39.229Z,25.95
2018-11-06T20:02:07.558Z,30.52
2018-11-06T20:04:35.885Z,27.80
2018-11-06T20:07:03.912Z,25.72
2018-11-06T20:09:32.018Z,34.20
2018-11-06T20:12:00.226Z,31.40
2018-11-06T20:14:28.197Z,26.45
2018-11-06T20:16:56.244Z,29.40
2018-11-06T20:19:24.620Z,24.72
2018-11-06T20:21:52.695Z,28.85
2018-11-06T20:24:20.808Z,27.35
2018-11-06T20:26:48.902Z,35.98
2018-11-06T20:29:17.033Z,36.73
2018-11-06T20:31:45.166Z,35.80
2018-11-06T20:34:13.590Z,35.05
2018-11-06T20:36:41.663Z,29.80
2018-11-06T20:39:10.568Z,22.22
2018-11-06T20:41:38.713Z,24.92
2018-11-06T20:44:06.840Z,23.65
2018-11-06T20:46:35.294Z,28.25
2018-11-06T20:49:03.962Z,30.60
2018-11-06T20:51:31.996Z,27.48
2018-11-06T20:54:00.062Z,25.43
2018-11-06T20:56:28.204Z,27.73
2018-11-06T20:58:56.377Z,25.37
2018-11-06T21:01:24.513Z,20.82
2018-11-06T21:03:52.614Z,29.87
2018-11-06T21:06:20.739Z,23.32
2018-11-06T21:08:48.815Z,25.72
2018-11-06T21:11:16.932Z,25.40
2018-11-06T21:13:45.070Z,29.95
2018-11-06T21:16:13.247Z,20.72
2018-11-06T21:18:41.328Z,30.10
2018-11-06T21:21:09.432Z,26.23
2018-11-06T21:23:37.516Z,25.25
2018-11-06T21:26:06.030Z,27.25
2018-11-06T21:28:33.933Z,29.42
2018-11-06T21:31:02.035Z,23.77
2018-11-06T21:33:30.124Z,23.57
2018-11-06T21:35:58.224Z,18.60
2018-11-06T21:38:26.308Z,25.30
2018-11-06T21:40:54.496Z,28.95
2018-11-06T21:43:22.592Z,26.02
2018-11-06T21:45:50.732Z,23.98
2018-11-06T21:48:18.844Z,27.50
2018-11-06T21:50:46.929Z,24.63
2018-11-06T21:53:14.996Z,24.72
2018-11-06T21:55:43.092Z,23.98
2018-11-06T21:58:11.192Z,24.27
2018-11-06T22:00:39.302Z,24.37
2018-11-06T22:03:07.408Z,23.10
2018-11-06T22:05:36.004Z,22.48
2018-11-06T22:08:04.515Z,26.62
2018-11-06T22:10:32.629Z,20.90
2018-11-06T22:13:01.035Z,28.40
2018-11-06T22:15:29.166Z,31.15
2018-11-06T22:17:57.308Z,26.80
2018-11-06T22:20:25.406Z,22.52
2018-11-06T22:22:53.497Z,26.77
2018-11-06T22:25:21.589Z,26.55
2018-11-06T22:27:49.886Z,19.05
2018-11-06T22:30:18.092Z,26.70
2018-11-06T22:32:46.755Z,18.50
2018-11-06T22:35:16.729Z,24.23
2018-11-06T22:37:45.188Z,22.17
2018-11-06T22:40:14.673Z,30.02
2018-11-06T22:42:42.952Z,19.02
2018-11-06T22:45:13.249Z,19.85
2018-11-06T22:47:41.666Z,27.27
2018-11-06T22:50:11.769Z,22.37
2018-11-06T22:52:40.081Z,19.98
2018-11-06T22:55:08.477Z,20.92
2018-11-06T22:57:36.585Z,21.23
2018-11-06T23:00:08.940Z,20.90
2018-11-06T23:02:37.805Z,23.35
2018-11-06T23:05:06.251Z,27.98
2018-11-06T23:08:37.220Z,20.77
2018-11-06T23:11:06.472Z,20.97
2018-11-06T23:13:34.572Z,22.70
2018-11-06T23:16:02.908Z,24.95
2018-11-06T23:18:31.001Z,24.32
2018-11-06T23:20:59.132Z,19.65
2018-11-06T23:23:27.208Z,28.55
2018-11-06T23:25:55.289Z,22.80
2018-11-06T23:28:23.372Z,24.65
2018-11-06T23:30:51.461Z,24.43
2018-11-06T23:33:19.564Z,22.10
2018-11-06T23:35:47.717Z,24.45
2018-11-06T23:38:15.712Z,23.10
2018-11-06T23:40:43.836Z,21.60
2018-11-06T23:43:11.909Z,24.15
2018-11-06T23:45:39.992Z,28.12
2018-11-06T23:48:08.080Z,24.55
2018-11-06T23:50:36.136Z,20.48
2018-11-06T23:53:04.700Z,22.13
2018-11-06T23:55:32.772Z,19.30
2018-11-06T23:58:00.850Z,21.25
